Time;durP1;ratioP1;P1;durP2;ratioP2;P2;SDS_P1;SDS_P2;PMS_P1;PMS_P2;Temp;Humidity;BMP_temperature;BMP_pressure;BME280_temperature;BME280_humidity;BME280_pressure;Samples;Min_cycle;Max_cycle;Signal;HPM_P1;HPM_P2
2022/10/07 00:01:11;;;;;;;;;;;;;;;;;;5069029;28;20035;-60
2022/10/07 00:03:37;;;;;;;;;;;;;;;;;;5069050;28;19912;-60
2022/10/07 00:06:03;;;;;;;;;;;;;;;;;;5065939;28;20003;-61
2022/10/07 00:08:29;;;;;;;;;;;;;;;;;;5068667;28;20318;-60
2022/10/07 00:10:54;;;;;;;;;;;;;;;;;;5068942;28;19952;-60
2022/10/07 00:13:20;;;;;;;;;;;;;;;;;;5069525;28;20328;-61
2022/10/07 00:15:46;;;;;;;;;;;;;;;;;;5070344;28;20007;-60
2022/10/07 00:18:12;;;;;;;;;;;;;;;;;;5065245;28;20012;-61
2022/10/07 00:20:38;;;;;;;;;;;;;;;;;;5068473;28;19920;-60
2022/10/07 00:23:04;;;;;;;;;;;;;;;;;;5069608;28;20398;-60
2022/10/07 00:25:30;;;;;;;;;;;;;;;;;;5068226;28;19995;-60
2022/10/07 00:27:56;;;;;;;;;;;;;;;;;;5070283;28;19947;-60
2022/10/07 00:30:22;;;;;;;;;;;;;;;;;;5067336;28;19916;-61
2022/10/07 00:32:48;;;;;;;;;;;;;;;;;;5070957;28;19915;-60
2022/10/07 00:35:13;;;;;;;;;;;;;;;;;;5060135;28;19923;-60
2022/10/07 00:37:41;;;;;;;;;;;;;;;;;;5068568;28;20512;-60
2022/10/07 00:40:07;;;;;;;;;;;;;;;;;;5068297;28;19957;-61
2022/10/07 00:42:34;;;;;;;;;;;;;;;;;;5065625;28;20345;-61
2022/10/07 00:45:00;;;;;;;;;;;;;;;;;;5067784;28;19920;-60
2022/10/07 00:47:26;;;;;;;;;;;;;;;;;;5072214;28;19966;-61
2022/10/07 00:49:52;;;;;;;;;;;;;;;;;;5069742;28;19939;-61
2022/10/07 00:52:19;;;;;;;;;;;;;;;;;;5067006;28;19916;-60
2022/10/07 00:54:45;;;;;;;;;;;;;;;;;;5072437;28;20279;-60
2022/10/07 00:57:11;;;;;;;;;;;;;;;;;;5069332;28;20017;-61
2022/10/07 00:59:38;;;;;;;;;;;;;;;;;;5067031;28;19920;-61
2022/10/07 01:02:04;;;;;;;;;;;;;;;;;;5064253;28;20322;-60
2022/10/07 01:04:30;;;;;;;;;;;;;;;;;;5071069;28;19958;-61
2022/10/07 01:06:56;;;;;;;;;;;;;;;;;;5064866;28;19939;-61
2022/10/07 01:09:22;;;;;;;;;;;;;;;;;;5089715;23;19936;-83
2022/10/07 01:11:48;;;;;;;;;;;;;;;;;;5043549;28;20385;-83
2022/10/07 01:14:14;;;;;;;;;;;;;;;;;;5044570;28;19916;-83
2022/10/07 01:19:10;;;;;;;;;;;;;;;;;;5071187;28;20278;-60
2022/10/07 01:21:36;;;;;;;;;;;;;;;;;;5071472;28;19955;-60
2022/10/07 01:24:02;;;;;;;;;;;;;;;;;;5071047;28;19951;-60
2022/10/07 01:26:28;;;;;;;;;;;;;;;;;;5066655;28;19919;-60
2022/10/07 01:28:54;;;;;;;;;;;;;;;;;;5069096;28;20367;-60
2022/10/07 01:31:20;;;;;;;;;;;;;;;;;;5071669;28;19987;-61
2022/10/07 01:33:46;;;;;;;;;;;;;;;;;;5072827;28;19948;-61
2022/10/07 01:36:11;;;;;;;;;;;;;;;;;;5070157;28;19927;-61
2022/10/07 01:38:37;;;;;;;;;;;;;;;;;;5071209;28;19952;-60
2022/10/07 01:41:03;;;;;;;;;;;;;;;;;;5070364;28;19917;-60
2022/10/07 01:43:29;;;;;;;;;;;;;;;;;;5071531;28;19951;-61
2022/10/07 01:45:55;;;;;;;;;;;;;;;;;;5072495;28;19962;-61
2022/10/07 01:48:21;;;;;;;;;;;;;;;;;;5072454;28;20438;-61
2022/10/07 01:50:47;;;;;;;;;;;;;;;;;;5071827;28;19947;-60
2022/10/07 01:53:14;;;;;;;;;;;;;;;;;;5071072;28;20285;-61
2022/10/07 01:55:40;;;;;;;;;;;;;;;;;;5072316;28;19956;-61
2022/10/07 01:58:06;;;;;;;;;;;;;;;;;;5050186;28;19912;-61
2022/10/07 02:00:31;;;;;;;;;;;;;;;;;;5069150;28;19954;-61
2022/10/07 02:02:57;;;;;;;;;;;;;;;;;;5072260;28;19913;-61
2022/10/07 02:05:23;;;;;;;;;;;;;;;;;;5072893;28;19920;-61
2022/10/07 02:07:50;;;;;;;;;;;;;;;;;;5072726;28;19934;-61
2022/10/07 02:10:16;;;;;;;;;;;;;;;;;;5071115;28;19917;-61
2022/10/07 02:12:42;;;;;;;;;;;;;;;;;;5072173;28;20009;-61
2022/10/07 02:15:09;;;;;;;;;;;;;;;;;;5071910;28;20011;-61
2022/10/07 02:17:36;;;;;;;;;;;;;;;;;;5066985;28;19959;-61
2022/10/07 02:20:02;;;;;;;;;;;;;;;;;;5069914;28;19913;-60
2022/10/07 02:22:27;;;;;;;;;;;;;;;;;;5071407;28;19967;-61
2022/10/07 02:24:54;;;;;;;;;;;;;;;;;;5068282;28;20438;-61
2022/10/07 02:27:20;;;;;;;;;;;;;;;;;;5061450;28;19919;-61
2022/10/07 02:29:46;;;;;;;;;;;;;;;;;;5070380;28;20294;-61
2022/10/07 02:32:11;;;;;;;;;;;;;;;;;;5070614;28;20021;-60
2022/10/07 02:34:37;;;;;;;;;;;;;;;;;;5069677;28;20007;-61
2022/10/07 02:37:03;;;;;;;;;;;;;;;;;;5071057;28;19922;-60
2022/10/07 02:39:29;;;;;;;;;;;;;;;;;;5069519;28;19985;-61
2022/10/07 02:41:55;;;;;;;;;;;;;;;;;;5064306;28;19926;-61
2022/10/07 02:44:24;;;;;;;;;;;;;;;;;;5069938;28;20507;-61
2022/10/07 02:46:50;;;;;;;;;;;;;;;;;;5067655;28;19912;-61
2022/10/07 02:49:17;;;;;;;;;;;;;;;;;;5069718;28;19917;-61
2022/10/07 02:51:43;;;;;;;;;;;;;;;;;;5070050;28;20039;-61
2022/10/07 02:54:09;;;;;;;;;;;;;;;;;;5071294;28;19999;-61
2022/10/07 02:56:36;;;;;;;;;;;;;;;;;;5071416;28;19990;-60
2022/10/07 02:59:02;;;;;;;;;;;;;;;;;;5071393;28;19965;-60
2022/10/07 03:01:28;;;;;;;;;;;;;;;;;;5069989;28;19999;-61
2022/10/07 03:03:54;;;;;;;;;;;;;;;;;;5063257;28;19917;-61
2022/10/07 03:06:20;;;;;;;;;;;;;;;;;;5064593;28;19928;-61
2022/10/07 03:08:46;;;;;;;;;;;;;;;;;;5071107;28;20379;-61
2022/10/07 03:11:12;;;;;;;;;;;;;;;;;;5065613;28;19913;-60
2022/10/07 03:13:38;;;;;;;;;;;;;;;;;;5070294;28;20011;-61
2022/10/07 03:16:04;;;;;;;;;;;;;;;;;;5069155;28;19920;-61
2022/10/07 03:18:30;;;;;;;;;;;;;;;;;;5069478;28;20012;-61
2022/10/07 03:20:56;;;;;;;;;;;;;;;;;;5064249;28;19948;-61
2022/10/07 03:23:22;;;;;;;;;;;;;;;;;;5069945;28;20001;-61
2022/10/07 03:25:48;;;;;;;;;;;;;;;;;;5069010;28;19952;-61
2022/10/07 03:28:14;;;;;;;;;;;;;;;;;;5070805;28;20366;-60
2022/10/07 03:30:40;;;;;;;;;;;;;;;;;;5069945;28;19997;-60
2022/10/07 03:33:07;;;;;;;;;;;;;;;;;;5069639;28;19958;-61
2022/10/07 03:35:33;;;;;;;;;;;;;;;;;;5068071;28;20058;-61
2022/10/07 03:37:59;;;;;;;;;;;;;;;;;;5070110;28;20422;-60
2022/10/07 03:40:25;;;;;;;;;;;;;;;;;;5069413;28;19931;-61
2022/10/07 03:42:51;;;;;;;;;;;;;;;;;;5061256;28;20381;-61
2022/10/07 03:45:19;;;;;;;;;;;;;;;;;;5069053;28;19955;-61
2022/10/07 03:47:45;;;;;;;;;;;;;;;;;;5069270;28;19920;-61
2022/10/07 03:50:11;;;;;;;;;;;;;;;;;;5063970;28;19940;-61
2022/10/07 03:52:37;;;;;;;;;;;;;;;;;;5068507;28;19913;-61
2022/10/07 03:55:03;;;;;;;;;;;;;;;;;;5070686;28;19923;-61
2022/10/07 04:00:13;;;;;;;;;;;;;;;;;;5069801;28;19974;-60
2022/10/07 04:02:39;;;;;;;;;;;;;;;;;;5068126;28;19960;-60
2022/10/07 04:05:05;;;;;;;;;;;;;;;;;;5067696;28;20400;-61
2022/10/07 04:07:32;;;;;;;;;;;;;;;;;;5065223;28;20395;-61
2022/10/07 04:09:58;;;;;;;;;;;;;;;;;;5067285;28;19917;-61
2022/10/07 04:12:23;;;;;;;;;;;;;;;;;;5067258;28;20332;-60
2022/10/07 04:14:49;;;;;;;;;;;;;;;;;;5069301;28;20374;-61
2022/10/07 04:17:15;;;;;;;;;;;;;;;;;;5073628;28;19942;-61
2022/10/07 04:19:41;;;;;;;;;;;;;;;;;;5074750;28;19917;-61
2022/10/07 04:22:07;;;;;;;;;;;;;;;;;;5070991;28;19955;-61
2022/10/07 04:24:33;;;;;;;;;;;;;;;;;;5072235;28;20026;-61
2022/10/07 04:26:59;;;;;;;;;;;;;;;;;;5066963;28;20017;-61
2022/10/07 04:29:25;;;;;;;;;;;;;;;;;;5067648;28;20270;-61
2022/10/07 04:31:51;;;;;;;;;;;;;;;;;;5073066;28;19956;-61
2022/10/07 04:34:17;;;;;;;;;;;;;;;;;;5069535;28;19961;-60
2022/10/07 04:36:43;;;;;;;;;;;;;;;;;;5073731;28;19912;-61
2022/10/07 04:39:08;;;;;;;;;;;;;;;;;;5073852;28;20011;-60
2022/10/07 04:41:34;;;;;;;;;;;;;;;;;;5070264;28;19955;-60
2022/10/07 04:44:00;;;;;;;;;;;;;;;;;;5072320;28;19959;-60
2022/10/07 04:46:27;;;;;;;;;;;;;;;;;;5072506;28;20011;-61
2022/10/07 04:48:53;;;;;;;;;;;;;;;;;;5072166;28;20409;-61
2022/10/07 04:51:18;;;;;;;;;;;;;;;;;;5059432;28;20026;-61
2022/10/07 04:53:44;;;;;;;;;;;;;;;;;;5070362;28;19973;-59
2022/10/07 04:56:10;;;;;;;;;;;;;;;;;;5054672;28;19908;-60
2022/10/07 04:58:36;;;;;;;;;;;;;;;;;;5058919;28;19917;-61
2022/10/07 05:01:02;;;;;;;;;;;;;;;;;;5073237;28;19919;-61
2022/10/07 05:03:28;;;;;;;;;;;;;;;;;;5071734;28;20379;-61
2022/10/07 05:05:54;;;;;;;;;;;;;;;;;;5068008;28;19916;-61
2022/10/07 05:08:20;;;;;;;;;;;;;;;;;;5066567;28;19963;-61
2022/10/07 05:10:46;;;;;;;;;;;;;;;;;;5069390;28;19955;-60
2022/10/07 05:13:12;;;;;;;;;;;;;;;;;;5072006;28;19912;-60
2022/10/07 05:15:38;;;;;;;;;;;;;;;;;;5068646;28;19966;-60
2022/10/07 05:18:05;;;;;;;;;;;;;;;;;;5070118;28;20391;-61
2022/10/07 05:20:34;;;;;;;;;;;;;;;;;;5073710;28;19913;-60
2022/10/07 05:22:59;;;;;;;;;;;;;;;;;;5072575;28;19915;-61
2022/10/07 05:25:26;;;;;;;;;;;;;;;;;;5072388;28;20022;-60
2022/10/07 05:27:52;;;;;;;;;;;;;;;;;;5073595;28;19995;-60
2022/10/07 05:30:18;;;;;;;;;;;;;;;;;;5070872;28;19960;-60
2022/10/07 05:32:44;;;;;;;;;;;;;;;;;;5072433;28;19970;-61
2022/10/07 05:35:10;;;;;;;;;;;;;;;;;;5073384;28;20313;-60
2022/10/07 05:37:36;;;;;;;;;;;;;;;;;;5068888;28;19917;-60
2022/10/07 05:40:02;;;;;;;;;;;;;;;;;;5072623;28;19913;-61
2022/10/07 05:42:28;;;;;;;;;;;;;;;;;;5070716;28;19966;-60
2022/10/07 05:44:54;;;;;;;;;;;;;;;;;;5073526;28;19959;-60
2022/10/07 05:47:20;;;;;;;;;;;;;;;;;;5069424;28;19920;-61
2022/10/07 05:49:45;;;;;;;;;;;;;;;;;;5071926;28;20351;-61
2022/10/07 05:52:11;;;;;;;;;;;;;;;;;;5073657;28;19909;-61
2022/10/07 05:54:37;;;;;;;;;;;;;;;;;;5073345;28;20106;-61
2022/10/07 05:57:03;;;;;;;;;;;;;;;;;;5067604;28;20018;-61
2022/10/07 05:59:30;;;;;;;;;;;;;;;;;;5068840;28;20282;-60
2022/10/07 06:01:56;;;;;;;;;;;;;;;;;;5065880;28;19912;-60
2022/10/07 06:04:22;;;;;;;;;;;;;;;;;;5067027;28;19919;-60
2022/10/07 06:06:48;;;;;;;;;;;;;;;;;;5065806;28;20276;-60
2022/10/07 06:14:43;;;;;;;;;;;;;;;;;;5068138;28;20325;-61
2022/10/07 06:17:09;;;;;;;;;;;;;;;;;;5072807;28;19950;-61
2022/10/07 06:19:34;;;;;;;;;;;;;;;;;;5069852;28;19916;-60
2022/10/07 06:22:01;;;;;;;;;;;;;;;;;;5066820;28;19982;-61
2022/10/07 06:24:27;;;;;;;;;;;;;;;;;;5071806;28;19934;-60
2022/10/07 06:26:54;;;;;;;;;;;;;;;;;;5071471;28;19995;-60
2022/10/07 06:29:20;;;;;;;;;;;;;;;;;;5070849;28;19924;-60
2022/10/07 06:31:46;;;;;;;;;;;;;;;;;;5060184;28;19956;-61
2022/10/07 06:34:11;;;;;;;;;;;;;;;;;;5067558;28;19919;-61
2022/10/07 06:36:37;;;;;;;;;;;;;;;;;;5071135;28;19921;-60
2022/10/07 06:39:03;;;;;;;;;;;;;;;;;;5072054;28;20444;-60
2022/10/07 06:41:29;;;;;;;;;;;;;;;;;;5070170;28;19988;-61
2022/10/07 06:43:59;;;;;;;;;;;;;;;;;;5052651;28;19940;-60
2022/10/07 06:46:25;;;;;;;;;;;;;;;;;;5065213;28;19916;-61
2022/10/07 06:48:51;;;;;;;;;;;;;;;;;;5072267;28;19955;-61
2022/10/07 06:51:17;;;;;;;;;;;;;;;;;;5070347;28;19939;-60
2022/10/07 06:53:43;;;;;;;;;;;;;;;;;;5070630;28;19949;-61
2022/10/07 06:56:09;;;;;;;;;;;;;;;;;;5072249;28;19951;-61
2022/10/07 06:58:35;;;;;;;;;;;;;;;;;;5071345;28;20408;-59
2022/10/07 07:01:01;;;;;;;;;;;;;;;;;;5070723;28;19912;-61
2022/10/07 07:03:27;;;;;;;;;;;;;;;;;;5071903;28;19919;-59
2022/10/07 07:05:53;;;;;;;;;;;;;;;;;;5070277;28;19916;-61
2022/10/07 07:08:19;;;;;;;;;;;;;;;;;;5071550;28;20017;-60
2022/10/07 07:10:45;;;;;;;;;;;;;;;;;;5070169;28;19916;-60
2022/10/07 07:13:11;;;;;;;;;;;;;;;;;;5064184;28;19951;-60
2022/10/07 07:15:37;;;;;;;;;;;;;;;;;;5069538;28;19920;-60
2022/10/07 07:18:03;;;;;;;;;;;;;;;;;;5070653;28;20006;-60
2022/10/07 07:20:34;;;;;;;;;;;;;;;;;;5071469;28;19912;-60
2022/10/07 07:22:59;;;;;;;;;;;;;;;;;;5060428;28;19928;-60
2022/10/07 07:25:25;;;;;;;;;;;;;;;;;;5061831;28;20412;-60
2022/10/07 07:27:51;;;;;;;;;;;;;;;;;;5070256;28;19958;-61
2022/10/07 07:30:21;;;;;;;;;;;;;;;;;;5071033;28;19999;-61
2022/10/07 07:32:47;;;;;;;;;;;;;;;;;;5070621;28;19908;-60
2022/10/07 07:35:13;;;;;;;;;;;;;;;;;;5071761;28;19982;-60
2022/10/07 07:37:39;;;;;;;;;;;;;;;;;;5071697;28;19955;-61
2022/10/07 07:40:05;;;;;;;;;;;;;;;;;;5071411;28;19940;-61
2022/10/07 07:42:31;;;;;;;;;;;;;;;;;;5068668;28;20321;-60
2022/10/07 07:44:57;;;;;;;;;;;;;;;;;;5071523;28;19923;-61
2022/10/07 07:47:23;;;;;;;;;;;;;;;;;;5071263;28;20054;-61
2022/10/07 07:49:49;;;;;;;;;;;;;;;;;;5071212;28;19913;-61
2022/10/07 07:52:15;;;;;;;;;;;;;;;;;;5071779;28;19908;-60
2022/10/07 07:54:41;;;;;;;;;;;;;;;;;;5071389;28;19970;-60
2022/10/07 07:57:07;;;;;;;;;;;;;;;;;;5056774;28;19908;-60
2022/10/07 07:59:33;;;;;;;;;;;;;;;;;;5070106;28;19963;-60
2022/10/07 08:01:59;;;;;;;;;;;;;;;;;;5070686;28;20244;-59
2022/10/07 08:04:25;;;;;;;;;;;;;;;;;;5071502;28;19959;-60
2022/10/07 08:06:51;;;;;;;;;;;;;;;;;;5055082;28;19909;-60
2022/10/07 08:09:16;;;;;;;;;;;;;;;;;;5051536;28;19908;-60
2022/10/07 08:11:45;;;;;;;;;;;;;;;;;;5065936;28;20746;-61
2022/10/07 08:14:11;;;;;;;;;;;;;;;;;;5069770;28;19912;-60
2022/10/07 08:16:37;;;;;;;;;;;;;;;;;;5069558;28;19939;-60
2022/10/07 08:19:03;;;;;;;;;;;;;;;;;;5071140;28;19959;-60
2022/10/07 08:21:32;;;;;;;;;;;;;;;;;;5070920;28;19952;-61
2022/10/07 08:23:58;;;;;;;;;;;;;;;;;;5070991;28;19909;-60
2022/10/07 08:26:24;;;;;;;;;;;;;;;;;;5071103;28;19952;-59
2022/10/07 08:28:50;;;;;;;;;;;;;;;;;;5071062;28;19951;-60
2022/10/07 08:31:16;;;;;;;;;;;;;;;;;;5062730;28;19916;-60
2022/10/07 08:33:43;;;;;;;;;;;;;;;;;;5053220;28;19916;-60
2022/10/07 08:36:09;;;;;;;;;;;;;;;;;;5071185;28;20361;-60
2022/10/07 08:38:35;;;;;;;;;;;;;;;;;;5071143;28;19992;-60
2022/10/07 08:41:04;;;;;;;;;;;;;;;;;;5070587;28;19912;-60
2022/10/07 08:43:30;;;;;;;;;;;;;;;;;;5052309;28;19920;-60
2022/10/07 08:45:56;;;;;;;;;;;;;;;;;;5050883;28;19960;-60
2022/10/07 08:48:22;;;;;;;;;;;;;;;;;;5058758;28;19918;-60
2022/10/07 08:50:48;;;;;;;;;;;;;;;;;;5070398;28;19997;-60
2022/10/07 08:53:14;;;;;;;;;;;;;;;;;;5070954;28;19947;-60
2022/10/07 08:55:39;;;;;;;;;;;;;;;;;;5070214;28;20333;-60
2022/10/07 08:58:06;;;;;;;;;;;;;;;;;;5070738;28;19916;-60
2022/10/07 09:00:31;;;;;;;;;;;;;;;;;;5070493;28;20342;-60
2022/10/07 09:02:57;;;;;;;;;;;;;;;;;;5071813;28;20003;-60
2022/10/07 09:05:23;;;;;;;;;;;;;;;;;;5072939;28;19925;-60
2022/10/07 09:07:49;;;;;;;;;;;;;;;;;;5073493;28;20359;-59
2022/10/07 09:10:15;;;;;;;;;;;;;;;;;;5073989;28;19940;-60
2022/10/07 09:12:41;;;;;;;;;;;;;;;;;;5066479;28;19951;-60
2022/10/07 09:15:07;;;;;;;;;;;;;;;;;;5074213;28;19916;-60
2022/10/07 09:17:33;;;;;;;;;;;;;;;;;;5074012;28;19916;-60
2022/10/07 09:19:59;;;;;;;;;;;;;;;;;;5070792;28;20268;-60
2022/10/07 09:22:24;;;;;;;;;;;;;;;;;;5073226;28;19952;-61
2022/10/07 09:24:50;;;;;;;;;;;;;;;;;;5071459;28;19947;-60
2022/10/07 09:27:16;;;;;;;;;;;;;;;;;;5073803;28;19912;-60
2022/10/07 09:29:42;;;;;;;;;;;;;;;;;;5074098;28;19954;-60
2022/10/07 09:32:08;;;;;;;;;;;;;;;;;;5074051;28;20001;-60
2022/10/07 09:34:34;;;;;;;;;;;;;;;;;;5073937;28;19940;-60
2022/10/07 09:37:00;;;;;;;;;;;;;;;;;;5073775;28;19916;-60
2022/10/07 09:39:26;;;;;;;;;;;;;;;;;;5071107;28;20007;-60
2022/10/07 09:41:52;;;;;;;;;;;;;;;;;;5073310;28;20036;-60
2022/10/07 09:44:18;;;;;;;;;;;;;;;;;;5073689;28;19908;-59
2022/10/07 09:46:47;;;;;;;;;;;;;;;;;;5073673;28;20002;-60
2022/10/07 09:49:13;;;;;;;;;;;;;;;;;;5073637;28;19961;-60
2022/10/07 09:51:38;;;;;;;;;;;;;;;;;;5073103;28;19959;-60
2022/10/07 09:54:04;;;;;;;;;;;;;;;;;;5064117;28;19912;-60
2022/10/07 09:56:30;;;;;;;;;;;;;;;;;;5053758;28;19923;-60
2022/10/07 09:58:56;;;;;;;;;;;;;;;;;;5073382;28;20007;-58
2022/10/07 10:01:22;;;;;;;;;;;;;;;;;;5072994;28;19908;-60
2022/10/07 10:03:48;;;;;;;;;;;;;;;;;;5073350;28;20260;-60
2022/10/07 10:06:14;;;;;;;;;;;;;;;;;;5073153;28;20007;-60
2022/10/07 10:08:40;;;;;;;;;;;;;;;;;;5073172;28;19916;-60
2022/10/07 10:11:06;;;;;;;;;;;;;;;;;;5068910;28;19956;-61
2022/10/07 10:13:32;;;;;;;;;;;;;;;;;;5067098;28;20371;-60
2022/10/07 10:15:58;;;;;;;;;;;;;;;;;;5066646;28;19965;-59
2022/10/07 10:18:23;;;;;;;;;;;;;;;;;;5059264;28;19921;-60
2022/10/07 10:20:49;;;;;;;;;;;;;;;;;;5067152;28;20026;-60
2022/10/07 10:23:15;;;;;;;;;;;;;;;;;;5072863;28;19908;-60
2022/10/07 10:28:26;;;;;;;;;;;;;;;;;;5072889;28;20379;-60
2022/10/07 10:30:52;;;;;;;;;;;;;;;;;;5070902;28;19995;-61
2022/10/07 10:33:18;;;;;;;;;;;;;;;;;;5072605;28;19908;-60
2022/10/07 10:35:44;;;;;;;;;;;;;;;;;;5063203;28;19959;-60
2022/10/07 10:38:10;;;;;;;;;;;;;;;;;;5072456;28;19912;-60
2022/10/07 10:40:35;;;;;;;;;;;;;;;;;;5072109;28;19909;-61
2022/10/07 10:43:01;;;;;;;;;;;;;;;;;;5072423;28;19908;-61
2022/10/07 10:45:27;;;;;;;;;;;;;;;;;;5071657;28;20011;-60
2022/10/07 10:47:53;;;;;;;;;;;;;;;;;;5070634;28;19912;-60
2022/10/07 10:50:20;;;;;;;;;;;;;;;;;;5072012;28;20279;-60
2022/10/07 10:52:48;;;;;;;;;;;;;;;;;;5071132;28;19943;-60
2022/10/07 10:55:14;;;;;;;;;;;;;;;;;;5072164;28;19913;-61
2022/10/07 10:57:40;;;;;;;;;;;;;;;;;;5072288;28;19940;-60
2022/10/07 11:00:06;;;;;;;;;;;;;;;;;;5071632;28;19908;-60
2022/10/07 11:02:32;;;;;;;;;;;;;;;;;;5071075;28;19994;-60
2022/10/07 11:04:58;;;;;;;;;;;;;;;;;;5072137;28;19913;-60
2022/10/07 11:07:24;;;;;;;;;;;;;;;;;;5068366;28;19922;-60
2022/10/07 11:09:50;;;;;;;;;;;;;;;;;;5070460;28;19917;-60
2022/10/07 11:12:16;;;;;;;;;;;;;;;;;;5072016;28;20382;-61
2022/10/07 11:14:44;;;;;;;;;;;;;;;;;;5063826;28;19975;-60
2022/10/07 11:17:10;;;;;;;;;;;;;;;;;;5072045;28;19913;-60
2022/10/07 11:19:36;;;;;;;;;;;;;;;;;;5071922;28;19962;-60
2022/10/07 11:22:02;;;;;;;;;;;;;;;;;;5070192;28;19913;-60
2022/10/07 11:24:28;;;;;;;;;;;;;;;;;;5069936;28;19931;-60
2022/10/07 11:26:55;;;;;;;;;;;;;;;;;;5071902;28;20379;-60
2022/10/07 11:29:21;;;;;;;;;;;;;;;;;;5071431;28;20433;-60
2022/10/07 11:31:47;;;;;;;;;;;;;;;;;;5071361;28;19912;-60
2022/10/07 11:34:13;;;;;;;;;;;;;;;;;;5071688;28;19923;-60
2022/10/07 11:36:39;;;;;;;;;;;;;;;;;;5070978;28;20022;-60
2022/10/07 11:39:04;;;;;;;;;;;;;;;;;;5071818;28;20003;-59
2022/10/07 11:41:30;;;;;;;;;;;;;;;;;;5068112;28;20303;-59
2022/10/07 11:43:56;;;;;;;;;;;;;;;;;;5071244;28;19978;-59
2022/10/07 11:46:22;;;;;;;;;;;;;;;;;;5071573;28;19956;-59
2022/10/07 11:48:48;;;;;;;;;;;;;;;;;;5069533;28;19915;-59
2022/10/07 11:51:16;;;;;;;;;;;;;;;;;;5051191;28;19913;-59
2022/10/07 11:53:42;;;;;;;;;;;;;;;;;;5052427;28;19916;-59
2022/10/07 11:56:08;;;;;;;;;;;;;;;;;;5071569;28;19908;-60
2022/10/07 11:58:35;;;;;;;;;;;;;;;;;;5069481;28;20023;-59
2022/10/07 12:01:02;;;;;;;;;;;;;;;;;;5069877;28;20015;-59
2022/10/07 12:03:28;;;;;;;;;;;;;;;;;;5071301;28;19963;-60
2022/10/07 12:05:54;;;;;;;;;;;;;;;;;;5070788;28;19963;-60
2022/10/07 12:08:20;;;;;;;;;;;;;;;;;;5071218;28;19944;-60
2022/10/07 12:10:46;;;;;;;;;;;;;;;;;;5069182;28;19956;-60
2022/10/07 12:13:12;;;;;;;;;;;;;;;;;;5070781;28;20394;-60
2022/10/07 12:15:38;;;;;;;;;;;;;;;;;;5061450;28;19923;-60
2022/10/07 12:18:04;;;;;;;;;;;;;;;;;;5060768;28;19924;-60
2022/10/07 12:20:30;;;;;;;;;;;;;;;;;;5070995;28;19948;-58
2022/10/07 12:22:56;;;;;;;;;;;;;;;;;;5061024;28;19990;-60
2022/10/07 12:25:22;;;;;;;;;;;;;;;;;;5071278;28;19968;-60
2022/10/07 12:27:48;;;;;;;;;;;;;;;;;;5070873;28;19991;-60
2022/10/07 12:30:14;;;;;;;;;;;;;;;;;;5070795;28;19923;-60
2022/10/07 12:32:40;;;;;;;;;;;;;;;;;;5071117;28;20367;-58
2022/10/07 12:35:05;;;;;;;;;;;;;;;;;;5071239;28;19990;-58
2022/10/07 12:37:31;;;;;;;;;;;;;;;;;;5071562;28;19951;-58
2022/10/07 12:39:57;;;;;;;;;;;;;;;;;;5072954;28;19912;-57
2022/10/07 12:42:23;;;;;;;;;;;;;;;;;;5069886;28;19919;-58
2022/10/07 12:44:51;;;;;;;;;;;;;;;;;;5074256;28;19964;-57
2022/10/07 12:47:17;;;;;;;;;;;;;;;;;;5074975;28;20434;-58
2022/10/07 12:49:43;;;;;;;;;;;;;;;;;;5074500;28;19987;-58
2022/10/07 12:52:10;;;;;;;;;;;;;;;;;;5071838;28;19913;-58
2022/10/07 12:54:36;;;;;;;;;;;;;;;;;;5064289;28;19919;-58
2022/10/07 12:57:02;;;;;;;;;;;;;;;;;;5073206;28;19916;-58
2022/10/07 12:59:46;;;;;;;;;;;;;;;;;;5072407;28;20394;-57
2022/10/07 13:02:13;;;;;;;;;;;;;;;;;;5074354;28;20006;-57
2022/10/07 13:04:39;;;;;;;;;;;;;;;;;;5074471;28;19913;-58
2022/10/07 13:07:05;;;;;;;;;;;;;;;;;;5074450;28;19962;-58
2022/10/07 13:09:31;;;;;;;;;;;;;;;;;;5066501;28;20312;-58
2022/10/07 13:11:58;;;;;;;;;;;;;;;;;;5073964;28;20004;-59
2022/10/07 13:14:24;;;;;;;;;;;;;;;;;;5066753;28;19921;-56
2022/10/07 13:16:50;;;;;;;;;;;;;;;;;;5070642;28;19971;-59
2022/10/07 13:19:16;;;;;;;;;;;;;;;;;;5071858;28;19955;-58
2022/10/07 13:21:42;;;;;;;;;;;;;;;;;;5072433;28;19965;-59
2022/10/07 13:24:08;;;;;;;;;;;;;;;;;;5072822;28;19920;-59
2022/10/07 13:26:34;;;;;;;;;;;;;;;;;;5071750;28;20082;-58
2022/10/07 13:29:00;;;;;;;;;;;;;;;;;;5074092;28;19908;-57
2022/10/07 13:31:26;;;;;;;;;;;;;;;;;;5070390;28;19951;-58
2022/10/07 13:33:52;;;;;;;;;;;;;;;;;;5060928;28;19974;-58
2022/10/07 13:36:18;;;;;;;;;;;;;;;;;;5066262;28;20322;-59
2022/10/07 13:38:45;;;;;;;;;;;;;;;;;;5073639;28;20315;-58
2022/10/07 13:41:11;;;;;;;;;;;;;;;;;;5069938;28;20578;-62
2022/10/07 13:43:37;;;;;;;;;;;;;;;;;;5051782;28;19943;-59
2022/10/07 13:46:04;;;;;;;;;;;;;;;;;;5070516;28;19912;-59
2022/10/07 13:48:33;;;;;;;;;;;;;;;;;;5063814;28;20371;-59
2022/10/07 13:50:59;;;;;;;;;;;;;;;;;;5068979;28;20363;-59
2022/10/07 13:53:25;;;;;;;;;;;;;;;;;;5067881;28;19919;-58
2022/10/07 13:55:50;;;;;;;;;;;;;;;;;;5070793;28;19939;-59
2022/10/07 13:58:17;;;;;;;;;;;;;;;;;;5055628;28;19956;-59
2022/10/07 14:00:43;;;;;;;;;;;;;;;;;;5063555;28;19908;-57
2022/10/07 14:03:09;;;;;;;;;;;;;;;;;;5063740;28;22205;-59
2022/10/07 14:05:35;;;;;;;;;;;;;;;;;;5070043;28;20023;-58
2022/10/07 14:08:01;;;;;;;;;;;;;;;;;;5073290;28;19912;-57
2022/10/07 14:10:27;;;;;;;;;;;;;;;;;;5073054;28;20294;-59
2022/10/07 14:12:52;;;;;;;;;;;;;;;;;;5070815;28;20034;-58
2022/10/07 14:15:18;;;;;;;;;;;;;;;;;;5071702;28;20475;-59
2022/10/07 14:17:46;;;;;;;;;;;;;;;;;;5068589;28;20020;-59
2022/10/07 14:20:11;;;;;;;;;;;;;;;;;;5069995;28;20351;-59
2022/10/07 14:22:37;;;;;;;;;;;;;;;;;;5069642;28;20049;-57
2022/10/07 14:25:03;;;;;;;;;;;;;;;;;;5072796;28;20402;-58
2022/10/07 14:27:29;;;;;;;;;;;;;;;;;;5072898;28;19914;-58
2022/10/07 14:29:57;;;;;;;;;;;;;;;;;;5071717;28;20347;-59
2022/10/07 14:35:20;;;;;;;;;;;;;;;;;;5070066;28;19921;-58
2022/10/07 14:37:46;;;;;;;;;;;;;;;;;;5072579;28;19993;-58
2022/10/07 14:40:12;;;;;;;;;;;;;;;;;;5072328;28;20335;-58
2022/10/07 14:42:38;;;;;;;;;;;;;;;;;;5069512;28;20007;-57
2022/10/07 14:45:07;;;;;;;;;;;;;;;;;;5053450;28;19920;-58
2022/10/07 14:47:32;;;;;;;;;;;;;;;;;;5062864;28;19986;-58
2022/10/07 14:50:00;;;;;;;;;;;;;;;;;;5069115;28;20383;-58
2022/10/07 14:52:28;;;;;;;;;;;;;;;;;;5069958;28;20279;-59
2022/10/07 14:54:54;;;;;;;;;;;;;;;;;;5063070;28;20398;-60
2022/10/07 14:57:21;;;;;;;;;;;;;;;;;;5071429;28;19951;-60
2022/10/07 14:59:48;;;;;;;;;;;;;;;;;;5071126;28;20279;-60
2022/10/07 15:02:14;;;;;;;;;;;;;;;;;;5068513;28;20322;-60
2022/10/07 15:04:40;;;;;;;;;;;;;;;;;;5065214;28;19963;-61
2022/10/07 15:07:06;;;;;;;;;;;;;;;;;;5063748;28;19917;-60
2022/10/07 15:09:32;;;;;;;;;;;;;;;;;;5068890;28;19927;-60
2022/10/07 15:11:58;;;;;;;;;;;;;;;;;;5066161;28;20419;-60
2022/10/07 15:14:24;;;;;;;;;;;;;;;;;;5068210;28;19961;-61
2022/10/07 15:16:50;;;;;;;;;;;;;;;;;;5068522;28;19960;-60
2022/10/07 15:19:16;;;;;;;;;;;;;;;;;;5061932;28;19916;-59
2022/10/07 15:21:42;;;;;;;;;;;;;;;;;;5066845;28;19917;-60
2022/10/07 15:24:09;;;;;;;;;;;;;;;;;;5068689;28;19956;-60
2022/10/07 15:26:35;;;;;;;;;;;;;;;;;;5071015;28;19924;-60
2022/10/07 15:29:01;;;;;;;;;;;;;;;;;;5059789;28;19947;-60
2022/10/07 15:31:27;;;;;;;;;;;;;;;;;;5051825;28;19939;-60
2022/10/07 15:33:55;;;;;;;;;;;;;;;;;;5064673;28;20217;-60
2022/10/07 15:36:21;;;;;;;;;;;;;;;;;;5071640;28;20291;-60
2022/10/07 15:38:48;;;;;;;;;;;;;;;;;;5071255;28;19916;-60
2022/10/07 15:41:14;;;;;;;;;;;;;;;;;;5063565;28;20515;-59
2022/10/07 15:43:39;;;;;;;;;;;;;;;;;;5063140;28;19913;-60
2022/10/07 15:46:05;;;;;;;;;;;;;;;;;;5063154;28;19917;-60
2022/10/07 15:48:31;;;;;;;;;;;;;;;;;;5070808;28;20452;-61
2022/10/07 15:50:57;;;;;;;;;;;;;;;;;;5064889;28;20003;-61
2022/10/07 15:53:24;;;;;;;;;;;;;;;;;;5071057;28;19993;-61
2022/10/07 15:55:50;;;;;;;;;;;;;;;;;;5061996;28;19917;-60
2022/10/07 15:58:17;;;;;;;;;;;;;;;;;;5066090;28;19971;-61
2022/10/07 16:00:43;;;;;;;;;;;;;;;;;;5054766;28;19923;-61
2022/10/07 16:03:09;;;;;;;;;;;;;;;;;;5071639;28;19919;-61
2022/10/07 16:05:35;;;;;;;;;;;;;;;;;;5070505;28;20050;-61
2022/10/07 16:08:01;;;;;;;;;;;;;;;;;;5071439;28;20008;-61
2022/10/07 16:10:27;;;;;;;;;;;;;;;;;;5063412;28;19912;-61
2022/10/07 16:12:53;;;;;;;;;;;;;;;;;;5072599;28;19963;-61
2022/10/07 16:15:19;;;;;;;;;;;;;;;;;;5070729;28;20001;-61
2022/10/07 16:17:45;;;;;;;;;;;;;;;;;;5074764;28;20268;-61
2022/10/07 16:20:14;;;;;;;;;;;;;;;;;;5075142;28;19908;-61
2022/10/07 16:22:40;;;;;;;;;;;;;;;;;;5050743;28;19912;-61
2022/10/07 16:25:06;;;;;;;;;;;;;;;;;;5066437;28;19990;-60
2022/10/07 16:30:42;;;;;;;;;;;;;;;;;;5048179;28;20355;-61
2022/10/07 16:33:08;;;;;;;;;;;;;;;;;;5063505;28;19924;-61
2022/10/07 16:35:34;;;;;;;;;;;;;;;;;;5074935;28;20005;-60
2022/10/07 16:38:00;;;;;;;;;;;;;;;;;;5074110;28;19916;-61
2022/10/07 16:40:25;;;;;;;;;;;;;;;;;;5073745;28;19915;-61
2022/10/07 16:42:51;;;;;;;;;;;;;;;;;;5073672;28;20417;-60
2022/10/07 16:45:17;;;;;;;;;;;;;;;;;;5069437;28;19916;-61
2022/10/07 16:47:43;;;;;;;;;;;;;;;;;;5061013;28;20302;-61
2022/10/07 16:50:09;;;;;;;;;;;;;;;;;;5066741;28;19916;-60
2022/10/07 16:52:35;;;;;;;;;;;;;;;;;;5064093;28;19971;-61
2022/10/07 16:55:01;;;;;;;;;;;;;;;;;;5048837;28;20390;-61
2022/10/07 16:57:27;;;;;;;;;;;;;;;;;;5071554;28;19954;-61